Capt. W.d. Nunley — WDF6047 — position and weather

sailwx.info

Track history (hours):
 
Tides and Currents Weather Stations Pressure Air Temp Water Temp Dewpoint Dewpoint Depression Visibility Wind Speed Wind Dir Waves Ship Positions

Capt. W.d. Nunley

Owner: Florida Marine Transporters, LLC, Mandeville, LA. More information available from US FCC via Universal Licensing System and Coast Guard Vessel Documentation Center.

Last reported at 2017-Sep-24 08:22 UTC. Time now 2017-Oct-18 16:43 UTC.
Position N 32°47' W 091°10'.
Warning: this ship's position is 24 days out of date.

Length 37 m; draft 2.9 m.

Type: Ship (hazmat cat A). MMSI: 367470060.

Date/timePositionNaut miles runAvg speedWind from/ knotsBaromVisibWave heightAir tempDewpointWater temp
2017-Sep-24 08:22N 32°47' W 091°10'1 2.1
2017-Sep-24 07:57N 32°46' W 091°09'5 3.9
2017-Sep-24 06:47N 32°44' W 091°04'4 4.3
2017-Sep-24 05:54N 32°41' W 091°06'2 5.6
2017-Sep-24 05:30N 32°40' W 091°08'3 5.0
2017-Sep-24 04:57N 32°37' W 091°09'3 6.0
2017-Sep-24 04:30N 32°35' W 091°07'3 5.2
2017-Sep-24 03:54N 32°32' W 091°06'3 6.4
2017-Sep-24 03:30N 32°30' W 091°07'3 6.2
2017-Sep-24 03:00N 32°27' W 091°05'3 6.4
2017-Sep-24 02:30N 32°26' W 091°01'3 5.5
2017-Sep-24 02:00N 32°24' W 090°60'2 3.5
2017-Sep-24 01:30N 32°22' W 091°00'3 5.7
2017-Sep-24 01:00N 32°21' W 090°57'3 6.0
2017-Sep-24 00:30N 32°20' W 090°54'4 7.1
2017-Sep-24 00:00N 32°17' W 090°57'3 5.8
2017-Sep-23 23:30N 32°15' W 090°59'3 6.1
2017-Sep-23 23:00N 32°12' W 090°59'3 5.8
2017-Sep-23 22:30N 32°09' W 091°00'3 5.2
2017-Sep-23 22:00N 32°07' W 091°03'3 6.1
2017-Sep-23 21:29N 32°08' W 091°06'6 5.4
2017-Sep-23 20:21N 32°02' W 091°04'3 5.6
2017-Sep-23 19:49N 31°59' W 091°06'6 0.1
2017-Sep-21 20:22N 32°06' W 091°06'2 4.9
2017-Sep-21 19:52N 32°08' W 091°04'3 8.2
2017-Sep-21 19:30N 32°08' W 091°00'510.0
2017-Sep-21 19:00N 32°13' W 090°59'5 9.6
2017-Sep-21 18:30N 32°17' W 090°56'3 7.0
2017-Sep-21 18:00N 32°21' W 090°55'4 8.8
2017-Sep-21 17:30N 32°22' W 091°00'4 8.1
2017-Sep-21 17:00N 32°26' W 091°01'5 9.6
2017-Sep-21 16:30N 32°28' W 091°06'2 3.9
2017-Sep-21 16:00N 32°30' W 091°07'3 6.9
2017-Sep-21 15:30N 32°33' W 091°06'5 9.9
2017-Sep-21 15:00N 32°37' W 091°09'8 5.4
2017-Sep-21 13:28N 32°46' W 091°09'  
2017-Sep-17 22:58N 38°55' W 090°14'3 5.6
2017-Sep-17 22:30N 38°55' W 090°17'3 6.0
2017-Sep-17 22:00N 38°56' W 090°21'3 6.5
2017-Sep-17 21:30N 38°58' W 090°24'3 6.2
2017-Sep-17 21:00N 38°58' W 090°28'3 5.1
2017-Sep-17 20:30N 38°57' W 090°31'  
Track history (hours):
 
Tides and Currents Weather Stations Pressure Air Temp Water Temp Dewpoint Dewpoint Depression Visibility Wind Speed Wind Dir Waves Ship Positions

Capt. W.d. Nunley

Owner: Florida Marine Transporters, LLC, Mandeville, LA. More information available from US FCC via Universal Licensing System and Coast Guard Vessel Documentation Center.

Last reported at 2017-Sep-24 08:22 UTC. Time now 2017-Oct-18 16:43 UTC.
Position N 32°47' W 091°10'.
Warning: this ship's position is 24 days out of date.

Length 37 m; draft 2.9 m.

Type: Ship (hazmat cat A). MMSI: 367470060.

Date/timePositionNaut miles runAvg speedWind from/ knotsBaromVisibWave heightAir tempDewpointWater temp
2017-Sep-24 08:22N 32°47' W 091°10'1 2.1
2017-Sep-24 07:57N 32°46' W 091°09'5 3.9
2017-Sep-24 06:47N 32°44' W 091°04'4 4.3
2017-Sep-24 05:54N 32°41' W 091°06'2 5.6
2017-Sep-24 05:30N 32°40' W 091°08'3 5.0
2017-Sep-24 04:57N 32°37' W 091°09'3 6.0
2017-Sep-24 04:30N 32°35' W 091°07'3 5.2
2017-Sep-24 03:54N 32°32' W 091°06'3 6.4
2017-Sep-24 03:30N 32°30' W 091°07'3 6.2
2017-Sep-24 03:00N 32°27' W 091°05'3 6.4
2017-Sep-24 02:30N 32°26' W 091°01'3 5.5
2017-Sep-24 02:00N 32°24' W 090°60'2 3.5
2017-Sep-24 01:30N 32°22' W 091°00'3 5.7
2017-Sep-24 01:00N 32°21' W 090°57'3 6.0
2017-Sep-24 00:30N 32°20' W 090°54'4 7.1
2017-Sep-24 00:00N 32°17' W 090°57'3 5.8
2017-Sep-23 23:30N 32°15' W 090°59'3 6.1
2017-Sep-23 23:00N 32°12' W 090°59'3 5.8
2017-Sep-23 22:30N 32°09' W 091°00'3 5.2
2017-Sep-23 22:00N 32°07' W 091°03'3 6.1
2017-Sep-23 21:29N 32°08' W 091°06'6 5.4
2017-Sep-23 20:21N 32°02' W 091°04'3 5.6
2017-Sep-23 19:49N 31°59' W 091°06'6 0.1
2017-Sep-21 20:22N 32°06' W 091°06'2 4.9
2017-Sep-21 19:52N 32°08' W 091°04'3 8.2
2017-Sep-21 19:30N 32°08' W 091°00'510.0
2017-Sep-21 19:00N 32°13' W 090°59'5 9.6
2017-Sep-21 18:30N 32°17' W 090°56'3 7.0
2017-Sep-21 18:00N 32°21' W 090°55'4 8.8
2017-Sep-21 17:30N 32°22' W 091°00'4 8.1
2017-Sep-21 17:00N 32°26' W 091°01'5 9.6
2017-Sep-21 16:30N 32°28' W 091°06'2 3.9
2017-Sep-21 16:00N 32°30' W 091°07'3 6.9
2017-Sep-21 15:30N 32°33' W 091°06'5 9.9
2017-Sep-21 15:00N 32°37' W 091°09'8 5.4
2017-Sep-21 13:28N 32°46' W 091°09'  
2017-Sep-17 22:58N 38°55' W 090°14'3 5.6
2017-Sep-17 22:30N 38°55' W 090°17'3 6.0
2017-Sep-17 22:00N 38°56' W 090°21'3 6.5
2017-Sep-17 21:30N 38°58' W 090°24'3 6.2
2017-Sep-17 21:00N 38°58' W 090°28'3 5.1
2017-Sep-17 20:30N 38°57' W 090°31'  

Dump ship's entire track history